Time;durP1;ratioP1;P1;durP2;ratioP2;P2;SDS_P1;SDS_P2;PMS_P1;PMS_P2;Temp;Humidity;BMP_temperature;BMP_pressure;BME280_temperature;BME280_humidity;BME280_pressure;Samples;Min_cycle;Max_cycle;Signal;HPM_P1;HPM_P2
2021/06/20 00:01:50;;;;;;;5.17;2.40;;;;;;;20.67;70.44;100680.88;1749296;80;21446;-74
2021/06/20 00:04:19;;;;;;;6.80;2.20;;;;;;;20.63;70.69;100689.97;1760524;81;21005;-75
2021/06/20 00:06:49;;;;;;;6.67;1.77;;;;;;;20.60;71.02;100683.30;1758461;80;21613;-74
2021/06/20 00:09:17;;;;;;;8.37;2.07;;;;;;;20.57;71.21;100692.87;1758486;80;21448;-75
2021/06/20 00:11:48;;;;;;;8.67;2.70;;;;;;;20.56;71.27;100695.88;1767139;80;21004;-74
2021/06/20 00:14:15;;;;;;;7.10;2.20;;;;;;;20.51;71.35;100695.50;1753141;81;21026;-74
2021/06/20 00:16:43;;;;;;;4.67;2.10;;;;;;;20.53;71.61;100700.06;1752304;80;21007;-74
2021/06/20 00:19:10;;;;;;;5.60;1.73;;;;;;;20.55;71.59;100697.80;1746653;81;21100;-74
2021/06/20 00:21:37;;;;;;;6.20;1.97;;;;;;;20.56;71.76;100691.81;1745473;81;21538;-74
2021/06/20 00:24:06;;;;;;;4.77;1.97;;;;;;;20.55;71.83;100698.37;1760562;80;21071;-74
2021/06/20 00:26:32;;;;;;;5.37;1.90;;;;;;;20.54;71.94;100694.07;1756916;81;21558;-74
2021/06/20 00:28:59;;;;;;;5.37;1.93;;;;;;;20.52;72.15;100696.30;1757912;80;21538;-75
2021/06/20 00:31:26;;;;;;;5.47;2.20;;;;;;;20.52;72.27;100692.22;1761721;81;21058;-74
2021/06/20 00:33:52;;;;;;;6.17;1.90;;;;;;;20.51;72.27;100690.64;1754216;80;21062;-74
2021/06/20 00:36:18;;;;;;;6.17;1.80;;;;;;;20.50;72.11;100680.85;1754367;81;21097;-74
2021/06/20 00:38:45;;;;;;;3.03;1.63;;;;;;;20.51;72.29;100692.00;1752952;80;21522;-73
2021/06/20 00:41:12;;;;;;;6.67;2.00;;;;;;;20.46;72.24;100690.75;1751361;81;21034;-74
2021/06/20 00:43:38;;;;;;;5.00;2.00;;;;;;;20.43;72.33;100687.33;1742796;81;21112;-74
2021/06/20 00:46:08;;;;;;;3.37;1.80;;;;;;;20.41;72.45;100687.66;1758519;81;21038;-74
2021/06/20 00:48:33;;;;;;;4.70;1.80;;;;;;;20.42;72.58;100691.16;1752701;80;20972;-74
2021/06/20 00:51:00;;;;;;;4.87;1.83;;;;;;;20.40;72.97;100680.65;1750975;80;21361;-74
2021/06/20 00:53:26;;;;;;;6.93;2.40;;;;;;;20.37;73.09;100681.28;1773549;80;21002;-74
2021/06/20 00:55:53;;;;;;;7.13;2.47;;;;;;;20.36;73.17;100678.31;1758786;81;21033;-74
2021/06/20 00:58:21;;;;;;;5.70;1.97;;;;;;;20.34;73.16;100675.93;1761012;80;21031;-73
2021/06/20 01:00:48;;;;;;;5.13;1.93;;;;;;;20.32;73.38;100678.72;1759130;81;21569;-73
2021/06/20 01:03:14;;;;;;;4.23;1.60;;;;;;;20.28;73.66;100681.84;1746795;81;21015;-73
2021/06/20 01:05:43;;;;;;;7.37;2.30;;;;;;;20.21;73.91;100686.38;1748661;81;21070;-73
2021/06/20 01:08:10;;;;;;;4.53;2.00;;;;;;;20.16;73.96;100677.03;1746608;81;21164;-73
2021/06/20 01:10:40;;;;;;;5.27;1.97;;;;;;;20.13;73.92;100683.89;1749093;81;21095;-73
2021/06/20 01:13:10;;;;;;;5.40;2.10;;;;;;;20.13;74.04;100689.87;1739905;82;21094;-73
2021/06/20 01:15:37;;;;;;;3.50;1.97;;;;;;;20.15;73.93;100694.43;1747829;81;21039;-73
2021/06/20 01:18:04;;;;;;;5.10;2.00;;;;;;;20.17;73.89;100688.14;1757153;81;21038;-73
2021/06/20 01:20:31;;;;;;;5.20;2.10;;;;;;;20.20;73.86;100688.83;1758264;80;21902;-73
2021/06/20 01:22:58;;;;;;;3.07;1.70;;;;;;;20.23;73.68;100689.55;1740289;81;21102;-73
2021/06/20 01:25:28;;;;;;;3.20;1.70;;;;;;;20.26;73.60;100692.20;1753498;81;22229;-73
2021/06/20 01:28:04;;;;;;;4.17;2.13;;;;;;;20.30;73.63;100704.82;1757006;80;21183;-74
2021/06/20 01:30:30;;;;;;;3.67;1.80;;;;;;;20.33;73.37;100709.58;1748748;80;21144;-73
2021/06/20 01:33:00;;;;;;;5.27;2.10;;;;;;;20.36;73.33;100713.02;1743227;81;21132;-73
2021/06/20 01:35:26;;;;;;;2.90;1.80;;;;;;;20.37;72.86;100705.14;1755298;81;21034;-73
2021/06/20 01:37:54;;;;;;;4.33;1.90;;;;;;;20.41;72.61;100708.57;1750386;80;21066;-73
2021/06/20 01:40:21;;;;;;;5.10;1.70;;;;;;;20.43;72.52;100707.11;1749590;80;21627;-73
2021/06/20 01:42:48;;;;;;;6.23;1.87;;;;;;;20.44;72.30;100707.94;1741189;81;21050;-74
2021/06/20 01:45:17;;;;;;;4.47;1.93;;;;;;;20.42;72.13;100706.88;1766206;81;21131;-73
2021/06/20 01:47:44;;;;;;;4.90;1.70;;;;;;;20.41;71.95;100708.01;1757093;81;21011;-73
2021/06/20 01:50:14;;;;;;;2.97;1.63;;;;;;;20.42;71.70;100711.52;1743095;81;21066;-73
2021/06/20 01:52:41;;;;;;;4.67;1.77;;;;;;;20.45;71.55;100706.80;1758510;81;21059;-73
2021/06/20 01:55:11;;;;;;;4.47;1.80;;;;;;;20.52;71.41;100707.15;1750889;81;21070;-73
2021/06/20 01:57:40;;;;;;;3.87;1.80;;;;;;;20.58;71.36;100709.38;1758054;81;21135;-73
2021/06/20 02:00:16;;;;;;;4.37;1.80;;;;;;;20.64;70.97;100708.66;1760827;81;21654;-73
2021/06/20 02:02:43;;;;;;;10.97;1.87;;;;;;;20.69;70.54;100702.27;1754564;81;21062;-74
2021/06/20 02:05:13;;;;;;;4.77;1.90;;;;;;;20.72;70.10;100705.13;1747782;81;21022;-74
2021/06/20 02:07:39;;;;;;;3.00;1.87;;;;;;;20.75;69.80;100704.48;1757971;80;21035;-74
2021/06/20 02:10:10;;;;;;;4.43;1.77;;;;;;;20.76;69.57;100691.70;1752980;80;21131;-74
2021/06/20 02:12:36;;;;;;;4.87;1.80;;;;;;;20.73;69.46;100690.45;1751817;81;21027;-73
2021/06/20 02:15:07;;;;;;;3.13;1.70;;;;;;;20.69;69.43;100685.41;1758865;80;21071;-73
2021/06/20 02:17:36;;;;;;;4.50;1.80;;;;;;;20.65;69.57;100685.83;1752460;81;21321;-73
2021/06/20 02:20:12;;;;;;;4.90;2.10;;;;;;;20.62;69.51;100678.32;1753424;81;21110;-74
2021/06/20 02:22:39;;;;;;;3.40;1.60;;;;;;;20.58;69.65;100681.45;1757658;81;21669;-73
2021/06/20 02:25:10;;;;;;;7.20;2.10;;;;;;;20.53;69.77;100687.84;1743432;81;21520;-74
2021/06/20 02:27:37;;;;;;;3.83;1.70;;;;;;;20.54;69.79;100691.36;1754683;81;21551;-72
2021/06/20 02:30:05;;;;;;;4.67;1.70;;;;;;;20.57;69.85;100695.58;1749282;81;21086;-73
2021/06/20 02:32:32;;;;;;;5.23;1.67;;;;;;;20.61;69.90;100695.73;1753201;80;21031;-73
2021/06/20 02:34:59;;;;;;;6.17;2.17;;;;;;;20.62;69.81;100698.67;1740195;81;21775;-73
2021/06/20 02:37:27;;;;;;;5.60;2.30;;;;;;;20.60;69.71;100690.08;1753089;81;21074;-73
2021/06/20 02:39:55;;;;;;;5.03;1.80;;;;;;;20.61;69.79;100693.81;1757500;81;21062;-73
2021/06/20 02:42:22;;;;;;;4.73;1.90;;;;;;;20.63;69.84;100694.84;1762430;81;21051;-73
2021/06/20 02:44:50;;;;;;;3.50;2.03;;;;;;;20.64;69.51;100688.31;1763658;81;21049;-74
2021/06/20 02:47:17;;;;;;;4.37;1.90;;;;;;;20.63;69.29;100681.27;1760448;81;22074;-73
2021/06/20 02:49:46;;;;;;;4.63;1.87;;;;;;;20.62;69.13;100671.54;1758477;81;21290;-73
2021/06/20 02:52:14;;;;;;;4.87;2.00;;;;;;;20.61;68.93;100666.67;1745854;81;21105;-73
2021/06/20 02:54:51;;;;;;;5.43;2.03;;;;;;;20.60;68.84;100665.09;1760941;80;20987;-73
2021/06/20 02:57:23;;;;;;;5.27;1.80;;;;;;;20.60;68.81;100674.59;1745489;81;21015;-73
2021/06/20 02:59:51;;;;;;;5.43;1.90;;;;;;;20.61;68.81;100681.60;1752722;80;21094;-73
2021/06/20 03:02:18;;;;;;;4.47;1.80;;;;;;;20.63;68.71;100684.55;1743083;81;21043;-74
2021/06/20 03:04:46;;;;;;;4.53;1.90;;;;;;;20.64;68.68;100690.23;1753973;81;21018;-74
2021/06/20 03:07:13;;;;;;;3.97;1.70;;;;;;;20.64;68.70;100695.09;1754174;81;21071;-73
2021/06/20 03:09:40;;;;;;;5.27;1.90;;;;;;;20.61;68.72;100706.03;1753750;81;21022;-74
2021/06/20 03:12:09;;;;;;;3.40;1.80;;;;;;;20.59;68.98;100709.61;1743560;81;21136;-73
2021/06/20 03:14:36;;;;;;;4.10;2.10;;;;;;;20.56;68.68;100714.87;1747227;81;21067;-73
2021/06/20 03:17:04;;;;;;;4.83;2.00;;;;;;;20.53;68.64;100715.52;1766895;81;21026;-73
2021/06/20 03:19:32;;;;;;;5.27;2.00;;;;;;;20.53;68.90;100725.02;1752102;81;21035;-73
2021/06/20 03:22:01;;;;;;;4.17;2.07;;;;;;;20.56;69.27;100727.09;1753719;80;21027;-73
2021/06/20 03:24:33;;;;;;;5.30;2.10;;;;;;;20.59;69.28;100727.81;1751033;81;21809;-73
2021/06/20 03:27:00;;;;;;;5.67;1.93;;;;;;;20.59;69.33;100732.67;1743755;81;21026;-73
2021/06/20 03:29:28;;;;;;;2.87;1.80;;;;;;;20.63;69.64;100723.89;1747099;81;21075;-73
2021/06/20 03:31:55;;;;;;;2.77;1.93;;;;;;;20.67;69.20;100719.45;1746624;80;21058;-74
2021/06/20 12:27:38;;;;;;;1.93;1.00;;;;;;;30.79;34.09;100424.27;1669827;79;75823;-77
2021/06/20 12:30:22;;;;;;;4.50;1.10;;;;;;;30.80;32.59;100430.56;1532703;84;10000261;-75
2021/06/20 12:32:52;;;;;;;4.07;0.90;;;;;;;30.71;31.98;100431.56;1648164;84;20989;-74
2021/06/20 12:35:30;;;;;;;2.77;0.80;;;;;;;30.65;31.78;100437.28;1657539;84;21166;-74
2021/06/20 12:37:58;;;;;;;3.37;0.80;;;;;;;30.70;31.24;100436.30;1659192;84;21047;-73
2021/06/20 12:40:31;;;;;;;5.00;0.90;;;;;;;30.84;31.89;100436.87;1644830;84;21195;-75
2021/06/20 12:42:58;;;;;;;1.93;0.80;;;;;;;30.91;30.73;100425.81;1649472;85;21693;-75
2021/06/20 12:45:29;;;;;;;3.55;0.90;;;;;;;31.03;31.96;100425.95;1652034;85;21089;-72
2021/06/20 12:47:57;;;;;;;3.55;1.10;;;;;;;31.06;31.05;100431.48;1643553;85;21585;-74
2021/06/20 12:50:31;;;;;;;2.27;0.75;;;;;;;30.91;31.10;100434.09;1677165;83;21167;-75
2021/06/20 12:52:58;;;;;;;4.37;2.05;;;;;;;30.77;31.92;100436.30;1678845;83;21037;-75
2021/06/20 12:55:28;;;;;;;3.73;1.80;;;;;;;30.60;32.51;100429.62;1680825;83;21142;-75
2021/06/20 12:57:57;;;;;;;4.03;1.30;;;;;;;30.47;32.99;100420.19;1674983;83;21102;-75
2021/06/20 13:00:30;;;;;;;5.70;1.50;;;;;;;30.29;33.03;100424.92;1681368;83;21089;-76
2021/06/20 13:03:07;;;;;;;2.87;1.70;;;;;;;30.17;33.82;100434.33;1670286;83;21526;-74
2021/06/20 13:05:45;;;;;;;6.87;1.90;;;;;;;30.05;33.88;100433.36;1657673;84;21169;-74
2021/06/20 13:08:14;;;;;;;2.70;1.30;;;;;;;29.86;34.02;100434.52;1710776;81;21558;-75
2021/06/20 13:10:44;;;;;;;3.10;1.20;;;;;;;29.72;34.31;100435.88;1684768;82;21558;-72
2021/06/20 13:13:12;;;;;;;4.13;2.00;;;;;;;29.64;34.50;100433.08;1711633;81;21034;-73
2021/06/20 13:15:39;;;;;;;4.75;1.72;;;;;;;29.62;34.55;100428.58;1705068;82;21830;-74
2021/06/20 13:18:06;;;;;;;3.70;1.20;;;;;;;29.62;34.69;100422.29;1703166;82;21141;-75
2021/06/20 13:20:33;;;;;;;4.80;1.20;;;;;;;29.61;34.75;100417.94;1708408;82;21036;-76
2021/06/20 13:23:03;;;;;;;2.15;1.20;;;;;;;29.60;34.21;100417.75;1682115;81;21215;-76
2021/06/20 13:25:30;;;;;;;3.03;1.10;;;;;;;29.54;34.49;100414.55;1700539;82;21027;-75
2021/06/20 13:28:02;;;;;;;3.83;1.10;;;;;;;29.51;34.86;100418.08;1702416;82;21078;-77
2021/06/20 13:30:32;;;;;;;5.13;1.00;;;;;;;29.52;34.82;100417.52;1702621;82;21081;-74
2021/06/20 13:33:01;;;;;;;4.40;1.43;;;;;;;29.65;36.16;100418.17;1702346;82;21621;-74
2021/06/20 13:35:27;;;;;;;2.17;1.10;;;;;;;29.82;35.99;100412.48;1709547;81;21089;-76
2021/06/20 13:37:54;;;;;;;2.60;1.00;;;;;;;29.98;35.80;100414.87;1700049;82;21129;-76
2021/06/20 13:40:25;;;;;;;2.13;0.90;;;;;;;30.09;34.23;100415.64;1700159;81;21076;-74
2021/06/20 13:42:53;;;;;;;3.23;1.13;;;;;;;30.12;33.85;100409.94;1701775;82;21912;-73
2021/06/20 13:45:21;;;;;;;4.37;1.33;;;;;;;30.05;32.08;100418.99;1681782;82;20987;-73
2021/06/20 13:47:49;;;;;;;2.27;0.90;;;;;;;29.96;32.99;100411.70;1708192;81;21063;-75
2021/06/20 13:50:16;;;;;;;3.07;1.30;;;;;;;29.86;33.29;100415.24;1699224;82;21015;-76
2021/06/20 13:52:44;;;;;;;5.93;2.87;;;;;;;29.78;32.04;100417.20;1672940;83;21074;-74
2021/06/20 13:55:12;;;;;;;3.27;1.40;;;;;;;29.68;32.57;100420.14;1647114;84;21153;-72
2021/06/20 13:57:39;;;;;;;4.37;1.40;;;;;;;29.62;32.94;100418.16;1533919;84;10000250;-76
2021/06/20 14:00:08;;;;;;;4.57;1.67;;;;;;;29.57;33.65;100416.53;1656109;84;21055;-72
2021/06/20 14:02:37;;;;;;;2.92;1.70;;;;;;;29.52;33.14;100417.52;1657040;84;21004;-74
2021/06/20 14:05:05;;;;;;;3.60;1.70;;;;;;;29.43;32.77;100399.99;1651798;84;21567;-74
2021/06/20 14:07:34;;;;;;;3.07;1.30;;;;;;;29.40;33.38;100407.05;1654152;84;21048;-74
2021/06/20 14:10:05;;;;;;;4.25;1.67;;;;;;;29.45;34.25;100407.25;1658517;83;21149;-74
2021/06/20 14:12:35;;;;;;;3.23;1.17;;;;;;;29.51;34.73;100407.67;1655204;84;21028;-72
2021/06/20 14:15:05;;;;;;;4.47;0.97;;;;;;;29.54;34.36;100408.27;1652965;84;21079;-76
2021/06/20 14:17:32;;;;;;;3.80;0.90;;;;;;;29.52;34.80;100408.67;1652924;85;21082;-74
2021/06/20 14:19:59;;;;;;;3.10;1.20;;;;;;;29.45;34.54;100410.00;1647237;84;21110;-74
2021/06/20 14:22:25;;;;;;;3.77;1.10;;;;;;;29.43;34.72;100414.53;1650773;85;21197;-75
2021/06/20 14:24:52;;;;;;;2.13;1.30;;;;;;;29.38;33.39;100413.52;1656056;85;21870;-74
2021/06/20 14:27:20;;;;;;;3.07;1.10;;;;;;;29.28;32.73;100417.63;1662010;84;21137;-73
2021/06/20 14:29:47;;;;;;;2.80;1.03;;;;;;;29.17;33.24;100414.25;1662626;84;21074;-75
2021/06/20 14:32:14;;;;;;;3.63;1.13;;;;;;;29.15;33.22;100416.59;1649597;83;21146;-75
2021/06/20 14:34:41;;;;;;;6.43;1.00;;;;;;;29.16;33.92;100421.53;1669779;84;21111;-75
2021/06/20 14:37:10;;;;;;;1.60;0.90;;;;;;;29.14;33.67;100417.77;1654226;84;21178;-75
2021/06/20 14:39:37;;;;;;;3.27;1.00;;;;;;;29.13;34.66;100420.33;1658902;84;21519;-74
2021/06/20 14:42:05;;;;;;;2.60;1.00;;;;;;;29.13;33.97;100420.92;1655124;84;21103;-73
2021/06/20 14:44:32;;;;;;;3.80;0.93;;;;;;;29.12;34.72;100426.20;1659352;83;21101;-73
2021/06/20 14:46:59;;;;;;;2.97;0.80;;;;;;;29.14;35.24;100424.64;1652374;84;21688;-74
2021/06/20 14:49:26;;;;;;;3.03;1.20;;;;;;;29.17;35.01;100421.13;1656096;83;21060;-74
2021/06/20 14:51:54;;;;;;;3.60;1.20;;;;;;;29.13;34.94;100417.58;1659283;84;21051;-74
2021/06/20 14:54:21;;;;;;;2.03;1.00;;;;;;;29.03;35.45;100414.20;1657126;84;21091;-75
2021/06/20 14:56:48;;;;;;;3.07;0.80;;;;;;;28.96;35.99;100407.27;1654510;84;21056;-74
2021/06/20 14:59:15;;;;;;;1.57;0.90;;;;;;;28.89;35.10;100412.14;1662682;84;21055;-73
2021/06/20 15:01:42;;;;;;;3.33;0.93;;;;;;;28.84;35.80;100407.59;1648695;85;21079;-73
2021/06/20 15:04:09;;;;;;;3.50;1.00;;;;;;;28.78;35.82;100404.41;1658506;84;21702;-73
2021/06/20 15:06:36;;;;;;;1.70;0.90;;;;;;;28.71;36.23;100399.66;1670870;83;21090;-73
2021/06/20 15:09:03;;;;;;;3.67;1.20;;;;;;;28.66;36.60;100395.92;1660333;84;21022;-73
2021/06/20 15:11:31;;;;;;;1.90;0.80;;;;;;;28.61;36.78;100382.53;1675645;83;21063;-76
2021/06/20 15:13:58;;;;;;;2.77;1.00;;;;;;;28.59;36.76;100388.20;1654338;83;21043;-75
2021/06/20 15:16:25;;;;;;;2.43;1.17;;;;;;;28.56;36.38;100393.09;1658861;84;21868;-74
2021/06/20 15:18:52;;;;;;;2.53;1.00;;;;;;;28.55;37.19;100384.66;1654101;84;21079;-73
2021/06/20 15:21:19;;;;;;;2.10;0.90;;;;;;;28.56;37.27;100384.25;1649276;84;21095;-75
2021/06/20 15:23:47;;;;;;;2.80;0.90;;;;;;;28.45;36.93;100387.53;1538086;83;10000173;-74
2021/06/20 15:26:14;;;;;;;3.13;0.90;;;;;;;28.37;36.76;100391.39;1658631;83;21636;-75
2021/06/20 15:28:56;;;;;;;6.47;1.00;;;;;;;28.29;36.42;100398.77;1654665;83;21120;-76
2021/06/20 15:31:23;;;;;;;7.17;1.10;;;;;;;28.23;37.23;100399.73;1705472;82;21097;-76
2021/06/20 15:33:51;;;;;;;3.20;1.10;;;;;;;28.21;37.32;100412.26;1716342;82;21632;-75
2021/06/20 15:36:19;;;;;;;3.07;0.93;;;;;;;28.20;37.88;100415.59;1714965;82;21086;-83
2021/06/20 15:38:48;;;;;;;3.67;1.00;;;;;;;28.18;37.79;100418.51;1699298;82;21149;-83
2021/06/20 15:41:16;;;;;;;3.47;1.00;;;;;;;28.13;38.23;100429.83;1709601;82;21038;-74
2021/06/20 15:43:50;;;;;;;2.67;1.13;;;;;;;28.06;38.57;100429.97;1720955;82;21030;-74
2021/06/20 15:46:19;;;;;;;4.03;1.00;;;;;;;28.00;38.65;100444.42;1706984;80;21088;-75
2021/06/20 15:48:41;;;;;;;2.73;1.00;;;;;;;27.94;38.58;100428.89;1709908;81;21090;-76
2021/06/20 15:51:09;;;;;;;2.63;1.00;;;;;;;27.91;38.26;100439.26;1707618;81;21133;-76
2021/06/20 15:53:37;;;;;;;2.73;1.27;;;;;;;27.90;38.67;100437.66;1713133;82;21058;-76
2021/06/20 15:56:04;;;;;;;2.17;0.90;;;;;;;27.87;39.10;100442.56;1709964;82;21098;-75
2021/06/20 15:58:31;;;;;;;3.60;1.47;;;;;;;27.85;39.37;100444.09;1711743;80;21090;-76
2021/06/20 16:00:59;;;;;;;2.93;0.90;;;;;;;27.83;38.70;100446.61;1711025;81;21053;-76
2021/06/20 16:03:27;;;;;;;5.03;1.23;;;;;;;27.83;39.42;100447.98;1705393;81;21153;-77
2021/06/20 16:05:54;;;;;;;2.17;0.90;;;;;;;27.79;39.55;100449.91;1721453;81;22359;-75
2021/06/20 16:08:21;;;;;;;3.73;0.90;;;;;;;27.78;39.63;100446.97;1712945;82;21090;-77
2021/06/20 16:10:48;;;;;;;3.50;1.00;;;;;;;27.74;39.50;100442.00;1715505;82;21042;-73
2021/06/20 16:13:15;;;;;;;1.83;0.70;;;;;;;27.80;40.14;100439.72;1708070;82;21672;-75
2021/06/20 16:15:43;;;;;;;3.20;0.93;;;;;;;27.88;39.89;100447.46;1702511;81;21137;-74
2021/06/20 16:18:11;;;;;;;3.50;1.20;;;;;;;27.90;40.33;100442.36;1694319;82;21026;-76
2021/06/20 16:20:38;;;;;;;6.03;0.90;;;;;;;27.86;40.36;100445.67;1694750;82;21043;-74
2021/06/20 16:23:05;;;;;;;2.03;1.00;;;;;;;27.76;40.33;100447.92;1705214;81;21132;-75
2021/06/20 16:25:32;;;;;;;2.33;0.90;;;;;;;27.65;40.58;100445.62;1703528;81;22662;-77
2021/06/20 16:27:59;;;;;;;1.10;0.73;;;;;;;27.58;41.05;100451.04;1733464;80;21974;-76
2021/06/20 16:30:27;;;;;;;1.03;0.80;;;;;;;27.46;41.14;100447.95;1706892;82;21093;-75
2021/06/20 16:32:55;;;;;;;3.03;1.10;;;;;;;27.34;41.30;100457.23;1707240;82;21092;-76
2021/06/20 16:35:22;;;;;;;3.03;1.30;;;;;;;27.24;42.49;100452.97;1712349;82;22131;-77
2021/06/20 16:37:50;;;;;;;2.60;1.30;;;;;;;27.11;42.13;100446.89;1717137;81;21042;-75
2021/06/20 16:40:19;;;;;;;11.60;1.67;;;;;;;27.01;42.30;100426.98;1705547;82;21526;-76
2021/06/20 16:42:48;;;;;;;3.30;1.10;;;;;;;26.97;42.40;100435.75;1707900;82;21412;-75
2021/06/20 16:45:14;;;;;;;2.97;1.30;;;;;;;27.05;42.64;100438.23;1724930;81;21105;-77
2021/06/20 16:47:41;;;;;;;2.53;1.17;;;;;;;27.43;42.44;100436.36;1718836;80;21137;-76
2021/06/20 16:50:09;;;;;;;1.83;1.20;;;;;;;27.97;41.67;100433.63;1718321;81;21046;-76
2021/06/20 16:52:36;;;;;;;3.13;1.27;;;;;;;28.56;40.24;100422.72;1703184;82;22407;-74
2021/06/20 16:55:04;;;;;;;5.63;1.47;;;;;;;28.95;39.33;100424.92;1705788;82;21090;-75
2021/06/20 16:57:31;;;;;;;4.93;1.23;;;;;;;29.30;39.46;100433.16;1711415;82;21046;-75
2021/06/20 17:00:00;;;;;;;4.17;2.10;;;;;;;29.62;38.22;100414.03;1706201;82;22076;-76
2021/06/20 17:02:27;;;;;;;5.53;2.10;;;;;;;29.90;37.41;100408.55;1704740;82;21065;-77
2021/06/20 17:04:54;;;;;;;5.62;2.12;;;;;;;30.17;37.26;100404.62;1628980;87;21776;-76
2021/06/20 17:07:21;;;;;;;4.17;1.77;;;;;;;30.36;36.89;100413.89;1627928;86;21158;-75
2021/06/20 17:09:48;;;;;;;4.95;1.80;;;;;;;30.51;36.72;100406.40;1660887;84;21063;-75
2021/06/20 17:12:15;;;;;;;4.90;2.00;;;;;;;30.70;36.27;100410.67;1668575;83;21111;-77
2021/06/20 17:14:42;;;;;;;5.40;2.00;;;;;;;30.80;36.10;100422.29;1670148;84;21121;-76
2021/06/20 17:17:08;;;;;;;5.00;2.02;;;;;;;30.88;36.11;100421.09;1659858;84;21209;-78
2021/06/20 17:19:35;;;;;;;4.12;1.80;;;;;;;30.86;36.07;100431.73;1667007;83;21233;-76
2021/06/20 17:22:02;;;;;;;2.30;1.35;;;;;;;30.71;35.97;100435.10;1648919;85;21091;-75
2021/06/20 17:24:30;;;;;;;2.47;1.40;;;;;;;30.53;35.41;100430.20;1707128;82;21105;-75
2021/06/20 17:26:56;;;;;;;3.77;1.50;;;;;;;30.20;36.16;100440.45;1707840;82;21054;-76
2021/06/20 17:29:23;;;;;;;3.77;1.30;;;;;;;29.90;36.85;100436.67;1701386;83;22332;-76
2021/06/20 17:31:49;;;;;;;2.80;1.27;;;;;;;29.64;37.47;100441.34;1703871;82;21188;-75
2021/06/20 17:34:16;;;;;;;2.77;1.17;;;;;;;29.38;38.29;100436.13;1706630;82;21051;-76
2021/06/20 17:36:44;;;;;;;5.37;1.67;;;;;;;29.09;38.29;100431.91;1711620;82;21535;-76
2021/06/20 17:39:11;;;;;;;5.77;1.67;;;;;;;28.78;38.60;100433.86;1706328;82;21788;-75
2021/06/20 17:42:02;;;;;;;3.33;1.63;;;;;;;28.44;39.62;100433.45;1708563;82;21560;-75
2021/06/20 17:44:29;;;;;;;4.33;2.10;;;;;;;28.14;39.76;100430.05;1731722;81;21122;-74
2021/06/20 17:46:55;;;;;;;4.00;1.90;;;;;;;27.88;40.41;100426.87;1731745;81;21047;-76
2021/06/20 17:49:23;;;;;;;3.80;1.73;;;;;;;27.68;40.83;100426.26;1720807;81;21044;-74
2021/06/20 17:51:52;;;;;;;5.60;1.93;;;;;;;27.44;41.60;100428.33;1720735;81;21078;-76
2021/06/20 17:54:18;;;;;;;5.73;1.53;;;;;;;27.18;41.92;100422.37;1713729;82;21172;-76
2021/06/20 17:56:45;;;;;;;5.13;1.67;;;;;;;26.98;42.73;100429.10;1731511;81;21106;-76
2021/06/20 17:59:12;;;;;;;3.40;1.87;;;;;;;26.80;43.00;100422.80;1729068;81;21640;-75
2021/06/20 18:01:39;;;;;;;4.20;1.70;;;;;;;26.65;43.30;100411.42;1725805;81;21083;-75
2021/06/20 18:04:06;;;;;;;3.90;1.50;;;;;;;26.50;43.72;100415.13;1713000;82;21048;-73
2021/06/20 18:06:35;;;;;;;4.37;1.50;;;;;;;26.33;44.16;100414.45;1726727;81;21969;-74
2021/06/20 18:09:05;;;;;;;2.83;1.30;;;;;;;26.17;44.82;100419.28;1732320;82;21051;-74
2021/06/20 18:11:32;;;;;;;4.07;1.40;;;;;;;25.99;45.10;100412.12;1686450;83;21108;-74
2021/06/20 18:13:58;;;;;;;5.27;1.80;;;;;;;25.86;45.46;100406.03;1693347;83;21040;-75
2021/06/20 18:16:26;;;;;;;4.23;1.80;;;;;;;25.75;45.81;100410.50;1692708;83;21104;-77
2021/06/20 18:18:54;;;;;;;4.17;1.87;;;;;;;25.64;46.11;100415.78;1667521;84;21536;-74
2021/06/20 18:21:20;;;;;;;4.90;1.80;;;;;;;25.55;46.67;100417.16;1662749;84;21064;-74
2021/06/20 18:23:48;;;;;;;2.57;1.60;;;;;;;25.44;47.04;100415.59;1633626;85;21075;-75
2021/06/20 18:26:15;;;;;;;5.67;1.67;;;;;;;25.34;47.34;100416.97;1659843;84;21717;-75
2021/06/20 18:28:42;;;;;;;3.70;1.60;;;;;;;25.25;47.44;100416.39;1663868;84;21045;-75
2021/06/20 18:31:09;;;;;;;2.30;1.40;;;;;;;25.19;47.72;100423.29;1658501;84;21094;-76
2021/06/20 18:33:36;;;;;;;4.70;1.70;;;;;;;25.11;48.22;100413.34;1666394;84;21112;-74
2021/06/20 18:36:03;;;;;;;3.30;1.50;;;;;;;25.03;48.26;100418.63;1694498;84;21123;-74
2021/06/20 18:38:31;;;;;;;3.97;1.50;;;;;;;24.96;48.43;100418.48;1723311;82;21051;-74
2021/06/20 18:40:58;;;;;;;4.93;1.67;;;;;;;24.89;49.13;100416.97;1714920;83;21086;-74
2021/06/20 18:43:24;;;;;;;2.00;1.33;;;;;;;24.83;49.21;100419.76;1713585;82;21100;-75
2021/06/20 18:45:51;;;;;;;3.73;1.70;;;;;;;24.74;49.39;100425.41;1709614;82;21084;-74
2021/06/20 18:48:18;;;;;;;3.73;1.40;;;;;;;24.67;49.67;100425.25;1712248;83;21088;-73
2021/06/20 18:50:45;;;;;;;4.27;1.60;;;;;;;24.60;49.87;100424.31;1713852;82;21116;-73
2021/06/20 18:53:12;;;;;;;4.77;1.90;;;;;;;24.51;50.61;100428.03;1710524;82;21557;-75
2021/06/20 18:55:40;;;;;;;4.67;2.30;;;;;;;24.40;51.26;100425.58;1696253;83;21848;-74
2021/06/20 18:58:06;;;;;;;4.03;2.13;;;;;;;24.28;51.71;100427.84;1709447;82;21070;-74
2021/06/20 19:00:33;;;;;;;4.57;2.10;;;;;;;24.16;52.25;100431.23;1714169;81;21089;-71
2021/06/20 19:03:00;;;;;;;6.50;2.20;;;;;;;24.05;52.58;100424.11;1712066;82;21094;-69
2021/06/20 19:05:27;;;;;;;5.87;2.00;;;;;;;23.94;52.81;100425.21;1713970;82;21076;-71
2021/06/20 19:07:55;;;;;;;4.43;1.80;;;;;;;23.86;53.25;100430.27;1712466;81;22113;-73
2021/06/20 19:10:22;;;;;;;3.80;1.80;;;;;;;23.75;53.80;100428.61;1710049;82;21642;-72
2021/06/20 19:12:50;;;;;;;4.00;1.67;;;;;;;23.65;54.05;100433.17;1477833;82;9999695;-69
2021/06/20 19:15:17;;;;;;;5.03;1.90;;;;;;;23.56;54.44;100428.44;1705539;82;21057;-73
2021/06/20 19:17:44;;;;;;;3.10;1.70;;;;;;;23.49;54.55;100430.98;1723929;82;21143;-72
2021/06/20 19:20:13;;;;;;;3.37;1.70;;;;;;;23.41;54.65;100437.59;1712747;82;21189;-71
2021/06/20 19:22:41;;;;;;;3.87;1.57;;;;;;;23.36;54.92;100437.86;1710084;82;21532;-72
2021/06/20 19:25:11;;;;;;;5.70;2.47;;;;;;;23.33;55.03;100436.37;1707201;82;21685;-72
2021/06/20 19:27:38;;;;;;;4.33;2.17;;;;;;;23.28;54.78;100437.98;1709361;82;21559;-71
2021/06/20 19:30:07;;;;;;;7.77;2.70;;;;;;;23.25;55.14;100435.38;1713730;82;21123;-73
2021/06/20 19:32:35;;;;;;;5.53;3.10;;;;;;;23.21;55.40;100437.78;1707619;83;21032;-73
2021/06/20 19:35:04;;;;;;;6.07;3.30;;;;;;;23.15;55.48;100427.12;1711947;83;21175;-73
2021/06/20 19:37:31;;;;;;;6.97;3.37;;;;;;;23.09;55.34;100417.59;1709104;82;21079;-72
2021/06/20 19:39:58;;;;;;;5.00;2.60;;;;;;;23.06;55.73;100421.00;1707898;82;21055;-77
2021/06/20 19:42:24;;;;;;;4.77;2.30;;;;;;;23.01;55.69;100414.45;1703381;82;21601;-74
2021/06/20 19:44:52;;;;;;;4.80;2.27;;;;;;;22.96;55.78;100414.67;1715839;83;21554;-75
2021/06/20 19:47:19;;;;;;;3.40;1.80;;;;;;;22.93;55.83;100416.72;1718197;82;21397;-74
2021/06/20 19:49:48;;;;;;;4.00;1.63;;;;;;;22.89;55.79;100410.35;1722930;82;21134;-74
2021/06/20 19:52:14;;;;;;;3.27;1.90;;;;;;;22.87;55.88;100408.56;1722753;82;21044;-74
2021/06/20 19:54:41;;;;;;;3.23;1.30;;;;;;;22.84;55.72;100403.80;1711051;83;21055;-74
2021/06/20 19:57:08;;;;;;;4.97;1.60;;;;;;;22.82;55.60;100404.13;1698468;82;21490;-74
2021/06/20 19:59:35;;;;;;;4.07;1.50;;;;;;;22.79;55.30;100404.81;1711043;82;21091;-75
2021/06/20 20:02:03;;;;;;;4.23;1.70;;;;;;;22.79;55.69;100404.02;1718125;82;21295;-75
2021/06/20 20:04:30;;;;;;;3.93;1.60;;;;;;;22.76;55.58;100402.77;1708813;83;21160;-76
2021/06/20 20:06:59;;;;;;;4.60;1.57;;;;;;;22.74;55.63;100393.34;1711110;83;21039;-74
2021/06/20 20:09:26;;;;;;;3.33;1.60;;;;;;;22.71;55.96;100395.64;1710138;83;21112;-77
2021/06/20 20:11:54;;;;;;;3.43;1.70;;;;;;;22.68;56.08;100403.13;1713073;82;21475;-77
2021/06/20 20:14:20;;;;;;;3.90;1.70;;;;;;;22.66;56.07;100401.88;1712902;81;21068;-73
2021/06/20 20:16:47;;;;;;;5.67;1.90;;;;;;;22.64;56.36;100404.16;1711316;83;21107;-74
2021/06/20 20:19:13;;;;;;;3.13;1.43;;;;;;;22.59;56.45;100405.17;1715565;82;21795;-73
2021/06/20 20:21:40;;;;;;;5.03;1.90;;;;;;;22.53;56.81;100402.45;1672685;85;21116;-74